createdAt,value
2024-02-11T00:00:59.666Z,2.11
2024-02-11T00:02:03.911Z,2.17
2024-02-11T00:03:06.463Z,2.14
2024-02-11T00:04:08.985Z,2.14
2024-02-11T00:05:11.726Z,2.15
2024-02-11T00:06:15.854Z,2.11
2024-02-11T00:07:18.272Z,2.03
2024-02-11T00:08:20.524Z,2.12
2024-02-11T00:09:22.773Z,2.14
2024-02-11T00:10:25.262Z,2.18
2024-02-11T00:11:28.958Z,2.20
2024-02-11T00:12:31.557Z,2.08
2024-02-11T00:13:34.122Z,2.08
2024-02-11T00:14:37.649Z,2.19
2024-02-11T00:15:41.244Z,2.22
2024-02-11T00:16:45.453Z,2.20
2024-02-11T00:17:49.603Z,2.20
2024-02-11T00:18:52.490Z,2.27
2024-02-11T00:19:54.643Z,2.26
2024-02-11T00:20:57.103Z,2.17
2024-02-11T00:22:01.289Z,2.04
2024-02-11T00:23:05.275Z,2.08
2024-02-11T00:24:08.274Z,2.08
2024-02-11T00:25:12.060Z,2.01
2024-02-11T00:26:14.632Z,2.10
2024-02-11T00:27:19.667Z,2.11
2024-02-11T00:28:22.568Z,2.04
2024-02-11T00:29:24.892Z,2.01
2024-02-11T00:30:28.493Z,1.96
2024-02-11T00:31:30.930Z,1.93
2024-02-11T00:32:34.776Z,1.90
2024-02-11T00:33:39.569Z,1.97
2024-02-11T00:34:42.253Z,2.02
2024-02-11T00:35:46.669Z,2.06
2024-02-11T00:36:50.358Z,2.12
2024-02-11T00:37:53.310Z,2.15
2024-02-11T00:38:55.401Z,2.02
2024-02-11T00:39:58.191Z,2.11
2024-02-11T00:41:01.705Z,2.22
2024-02-11T00:42:04.873Z,2.15
2024-02-11T00:43:11.633Z,2.06
2024-02-11T00:44:15.672Z,2.03
2024-02-11T00:45:19.223Z,1.88
2024-02-11T00:46:21.986Z,1.85
2024-02-11T00:47:24.738Z,1.90
2024-02-11T00:48:27.317Z,1.99
2024-02-11T00:49:31.452Z,1.97
2024-02-11T00:50:34.269Z,1.97
2024-02-11T00:51:37.037Z,1.97
2024-02-11T00:52:43.947Z,2.01
2024-02-11T00:53:46.769Z,2.05
2024-02-11T00:54:49.409Z,2.08
2024-02-11T00:55:52.336Z,2.15
2024-02-11T00:56:56.741Z,2.08
2024-02-11T00:57:58.981Z,2.13
2024-02-11T00:59:01.336Z,2.24
2024-02-11T01:00:09.216Z,2.15
2024-02-11T01:01:12.875Z,2.14
2024-02-11T01:02:15.790Z,2.13
2024-02-11T01:03:18.534Z,2.15
2024-02-11T01:04:20.888Z,2.25
2024-02-11T01:05:23.846Z,2.34
2024-02-11T01:06:27.165Z,2.39
2024-02-11T01:07:32.537Z,2.40
2024-02-11T01:08:35.173Z,2.43
2024-02-11T01:09:38.025Z,2.46
2024-02-11T01:10:40.772Z,2.26
2024-02-11T01:11:44.305Z,2.29
2024-02-11T01:12:47.717Z,2.34
2024-02-11T01:13:50.280Z,2.44
2024-02-11T01:14:56.770Z,2.50
2024-02-11T01:15:59.022Z,2.52
2024-02-11T01:17:01.810Z,2.59
2024-02-11T01:18:05.407Z,2.46
2024-02-11T01:19:07.869Z,2.51
2024-02-11T01:20:14.047Z,2.62
2024-02-11T01:21:16.341Z,2.62
2024-02-11T01:22:20.219Z,2.61
2024-02-11T01:23:24.387Z,2.74
2024-02-11T01:24:26.750Z,2.67
2024-02-11T01:25:29.129Z,2.71
2024-02-11T01:26:31.186Z,2.74
2024-02-11T01:27:35.262Z,2.71
2024-02-11T01:28:40.421Z,2.78
2024-02-11T01:29:42.627Z,2.71
2024-02-11T01:30:46.780Z,2.79
2024-02-11T01:31:49.007Z,2.84
2024-02-11T01:32:51.335Z,2.89
2024-02-11T01:33:53.963Z,2.69
2024-02-11T01:34:56.165Z,2.57
2024-02-11T01:35:58.394Z,2.62
2024-02-11T01:37:01.259Z,2.61
2024-02-11T01:38:03.593Z,2.62
2024-02-11T01:39:06.516Z,2.62
2024-02-11T01:40:18.609Z,2.54
2024-02-11T01:41:21.076Z,2.59
2024-02-11T01:42:23.774Z,2.56
2024-02-11T01:43:26.267Z,2.56
2024-02-11T01:44:31.076Z,2.56
2024-02-11T01:45:35.242Z,2.54
2024-02-11T01:46:41.243Z,2.54
2024-02-11T01:47:46.727Z,2.62
2024-02-11T01:48:49.823Z,2.52
2024-02-11T01:49:52.952Z,2.31
2024-02-11T01:50:55.471Z,2.23
2024-02-11T01:51:59.917Z,2.33
2024-02-11T01:53:04.597Z,2.30
2024-02-11T01:54:07.215Z,2.37
2024-02-11T01:55:14.591Z,2.45
2024-02-11T01:56:22.303Z,2.45
2024-02-11T01:57:24.704Z,2.44
2024-02-11T01:58:29.252Z,2.37
2024-02-11T01:59:35.654Z,2.38
2024-02-11T02:00:38.806Z,2.30
2024-02-11T02:01:41.466Z,2.37
2024-02-11T02:02:45.220Z,2.35
2024-02-11T02:03:48.398Z,2.33
2024-02-11T02:04:53.006Z,2.24
2024-02-11T02:05:56.468Z,2.15
2024-02-11T02:06:59.073Z,2.14
2024-02-11T02:08:04.406Z,2.20
2024-02-11T02:09:08.196Z,2.17
2024-02-11T02:10:11.251Z,2.18
2024-02-11T02:11:13.856Z,2.27
2024-02-11T02:12:19.426Z,2.33
2024-02-11T02:13:21.727Z,2.31
2024-02-11T02:14:24.172Z,2.26
2024-02-11T02:15:27.093Z,2.27
2024-02-11T02:16:29.840Z,2.32
2024-02-11T02:17:34.334Z,2.30
2024-02-11T02:18:37.427Z,2.22
2024-02-11T02:19:40.031Z,2.28
2024-02-11T02:20:42.407Z,2.33
2024-02-11T02:21:54.872Z,2.39
2024-02-11T02:22:58.660Z,2.44
2024-02-11T02:24:01.841Z,2.46
2024-02-11T02:25:05.082Z,2.47
2024-02-11T02:26:08.384Z,2.43
2024-02-11T02:27:12.588Z,2.47
2024-02-11T02:28:14.805Z,2.46
2024-02-11T02:29:17.175Z,2.50
2024-02-11T02:30:19.688Z,2.53
2024-02-11T02:31:22.352Z,2.50
2024-02-11T02:32:24.974Z,2.37
2024-02-11T02:33:27.885Z,2.35
2024-02-11T02:34:32.188Z,2.34
2024-02-11T02:35:34.946Z,2.40
2024-02-11T02:36:37.915Z,2.30
2024-02-11T02:37:40.261Z,2.21
2024-02-11T02:38:42.767Z,2.28
2024-02-11T02:39:45.153Z,2.33
2024-02-11T02:40:48.354Z,2.31
2024-02-11T02:41:50.590Z,2.18
2024-02-11T02:42:53.895Z,2.30
2024-02-11T02:43:56.190Z,2.35
2024-02-11T02:44:58.401Z,2.42
2024-02-11T02:46:00.538Z,2.48
2024-02-11T02:47:02.709Z,2.53
2024-02-11T02:48:06.849Z,2.46
2024-02-11T02:49:10.333Z,2.48
2024-02-11T02:50:15.685Z,2.36
2024-02-11T02:51:20.493Z,2.30
2024-02-11T02:52:22.794Z,2.37
2024-02-11T02:53:25.339Z,2.36
2024-02-11T02:54:28.089Z,2.44
2024-02-11T02:55:32.127Z,2.36
2024-02-11T02:56:37.465Z,2.39
2024-02-11T02:57:39.804Z,2.36
2024-02-11T02:58:43.487Z,2.38
2024-02-11T02:59:45.907Z,2.32
2024-02-11T03:00:48.177Z,2.37
2024-02-11T03:01:50.513Z,2.44
2024-02-11T03:02:53.248Z,2.40
2024-02-11T03:03:57.241Z,2.46
2024-02-11T03:04:59.512Z,2.49
2024-02-11T03:06:01.871Z,2.49
2024-02-11T03:07:06.295Z,2.46
2024-02-11T03:08:09.027Z,2.45
2024-02-11T03:09:11.544Z,2.55
2024-02-11T03:10:16.318Z,2.57
2024-02-11T03:11:18.948Z,2.59
2024-02-11T03:12:21.229Z,2.58
2024-02-11T03:13:23.978Z,2.55
2024-02-11T03:14:27.035Z,2.45
2024-02-11T03:15:29.358Z,2.40
2024-02-11T03:16:31.844Z,2.47
2024-02-11T03:17:34.351Z,2.51
2024-02-11T03:18:36.616Z,2.43
2024-02-11T03:19:38.651Z,2.42
2024-02-11T03:20:41.407Z,2.43
2024-02-11T03:21:47.477Z,2.43
2024-02-11T03:22:52.045Z,2.46
2024-02-11T03:23:54.335Z,2.52
2024-02-11T03:24:56.430Z,2.54
2024-02-11T03:26:01.039Z,2.63
2024-02-11T03:27:05.418Z,2.44
2024-02-11T03:28:07.890Z,2.33
2024-02-11T03:29:10.512Z,2.35
2024-02-11T03:30:16.109Z,2.37
2024-02-11T03:31:20.231Z,2.43
2024-02-11T03:32:22.472Z,2.48
2024-02-11T03:33:26.019Z,2.51
2024-02-11T03:34:28.305Z,2.63
2024-02-11T03:35:30.442Z,2.53
2024-02-11T03:36:34.039Z,2.35
2024-02-11T03:37:36.341Z,2.33
2024-02-11T03:38:38.776Z,2.42
2024-02-11T03:39:40.812Z,2.50
2024-02-11T03:40:45.666Z,2.56
2024-02-11T03:41:48.474Z,2.55
2024-02-11T03:42:51.516Z,2.55
2024-02-11T03:43:53.847Z,2.59
2024-02-11T03:44:56.067Z,2.65
2024-02-11T03:45:58.802Z,2.75
2024-02-11T03:47:03.620Z,2.76
2024-02-11T03:48:08.158Z,2.75
2024-02-11T03:49:10.678Z,2.79
2024-02-11T03:50:15.827Z,2.85
2024-02-11T03:51:18.799Z,2.94
2024-02-11T03:52:21.670Z,3.00
2024-02-11T03:53:24.319Z,2.77
2024-02-11T03:54:26.542Z,2.65
2024-02-11T03:55:31.073Z,2.71
2024-02-11T03:56:35.528Z,2.75
2024-02-11T03:57:41.163Z,2.76
2024-02-11T03:58:43.903Z,2.80
2024-02-11T03:59:46.150Z,2.84
2024-02-11T04:00:48.798Z,2.62
2024-02-11T04:01:51.186Z,2.62
2024-02-11T04:02:54.419Z,2.65
2024-02-11T04:03:57.148Z,2.73
2024-02-11T04:05:00.665Z,2.77
2024-02-11T04:06:04.733Z,2.77
2024-02-11T04:07:10.113Z,2.50
2024-02-11T04:08:13.639Z,2.51
2024-02-11T04:09:16.373Z,2.45
2024-02-11T04:10:24.425Z,2.46
2024-02-11T04:11:31.260Z,2.41
2024-02-11T04:12:33.700Z,2.43
2024-02-11T04:13:37.396Z,2.44
2024-02-11T04:14:41.610Z,2.38
2024-02-11T04:15:43.707Z,2.35
2024-02-11T04:16:46.539Z,2.34
2024-02-11T04:17:50.337Z,2.29
2024-02-11T04:18:54.659Z,2.23
2024-02-11T04:19:58.378Z,2.22
2024-02-11T04:21:00.880Z,2.22
2024-02-11T04:22:04.920Z,2.21
2024-02-11T04:23:08.376Z,2.13
2024-02-11T04:24:12.786Z,2.12
2024-02-11T04:25:15.248Z,2.22
2024-02-11T04:26:18.324Z,2.31
2024-02-11T04:27:22.827Z,2.33
2024-02-11T04:28:25.134Z,2.36
2024-02-11T04:29:27.346Z,2.36
2024-02-11T04:30:30.529Z,2.52
2024-02-11T04:31:34.713Z,2.50
2024-02-11T04:32:39.469Z,2.55
2024-02-11T04:33:42.695Z,2.66
2024-02-11T04:34:46.280Z,2.58
2024-02-11T04:35:48.749Z,2.49
2024-02-11T04:36:51.015Z,2.60
2024-02-11T04:37:54.267Z,2.47
2024-02-11T04:38:58.437Z,2.49
2024-02-11T04:40:00.705Z,2.37
2024-02-11T04:41:03.081Z,2.28
2024-02-11T04:42:06.986Z,2.33
2024-02-11T04:43:09.273Z,2.49
2024-02-11T04:44:12.171Z,2.54
2024-02-11T04:45:16.845Z,2.59
2024-02-11T04:46:20.877Z,2.67
2024-02-11T04:47:25.319Z,2.57
2024-02-11T04:48:28.064Z,2.61
2024-02-11T04:49:30.757Z,2.53
2024-02-11T04:50:35.101Z,2.59
2024-02-11T04:51:37.719Z,2.66
2024-02-11T04:52:39.966Z,2.74
2024-02-11T04:53:42.236Z,2.82
2024-02-11T04:54:46.137Z,2.74
2024-02-11T04:55:50.904Z,2.64
2024-02-11T04:56:54.113Z,2.60
2024-02-11T04:57:59.583Z,2.57
2024-02-11T04:59:04.073Z,2.49
2024-02-11T05:00:14.424Z,2.45
2024-02-11T05:01:17.488Z,2.53
2024-02-11T05:02:20.077Z,2.62
2024-02-11T05:03:24.425Z,2.71
2024-02-11T05:04:26.677Z,2.53
2024-02-11T05:05:32.644Z,2.54
2024-02-11T05:06:35.390Z,2.48
2024-02-11T05:07:37.733Z,2.52
2024-02-11T05:08:39.868Z,2.59
2024-02-11T05:09:45.854Z,2.55
2024-02-11T05:10:50.273Z,2.47
2024-02-11T05:11:54.566Z,2.45
2024-02-11T05:13:00.246Z,2.43
2024-02-11T05:14:03.515Z,2.50
2024-02-11T05:15:06.838Z,2.58
2024-02-11T05:16:11.385Z,2.42
2024-02-11T05:17:16.427Z,2.47
2024-02-11T05:18:19.706Z,2.36
2024-02-11T05:19:22.194Z,2.33
2024-02-11T05:20:26.377Z,2.39
2024-02-11T05:21:28.675Z,2.46
2024-02-11T05:22:33.027Z,2.50
2024-02-11T05:23:36.074Z,2.39
2024-02-11T05:24:40.947Z,2.36
2024-02-11T05:25:46.304Z,2.46
2024-02-11T05:26:48.930Z,2.40
2024-02-11T05:28:03.410Z,2.29
2024-02-11T05:29:07.248Z,2.23
2024-02-11T05:30:11.662Z,2.16
2024-02-11T05:31:21.115Z,2.18
2024-02-11T05:32:23.838Z,2.15
2024-02-11T05:33:26.606Z,2.16
2024-02-11T05:34:29.088Z,2.13
2024-02-11T05:35:36.171Z,2.11
2024-02-11T05:36:44.170Z,2.14
2024-02-11T05:37:46.888Z,2.12
2024-02-11T05:38:49.225Z,2.18
2024-02-11T05:39:51.900Z,2.20
2024-02-11T05:41:00.098Z,2.23
2024-02-11T05:42:04.367Z,2.25
2024-02-11T05:43:06.427Z,2.16
2024-02-11T05:44:10.630Z,2.11
2024-02-11T05:45:13.814Z,2.10
2024-02-11T05:46:17.828Z,2.12
2024-02-11T05:47:20.076Z,2.13
2024-02-11T05:48:23.261Z,2.15
2024-02-11T05:49:27.544Z,2.16
2024-02-11T05:50:30.368Z,2.13
2024-02-11T05:51:33.190Z,2.18
2024-02-11T05:52:37.340Z,2.17
2024-02-11T05:53:39.993Z,2.16
2024-02-11T05:54:43.996Z,2.15
2024-02-11T05:55:46.575Z,2.19
2024-02-11T05:56:53.176Z,2.19
2024-02-11T05:57:55.735Z,2.21
2024-02-11T05:58:57.876Z,2.10
2024-02-11T05:59:59.992Z,2.08
2024-02-11T06:01:04.490Z,1.98
2024-02-11T06:02:07.059Z,2.00
2024-02-11T06:03:10.074Z,1.98
2024-02-11T06:04:13.673Z,1.94
2024-02-11T06:05:17.374Z,1.84
2024-02-11T06:06:20.171Z,1.82
2024-02-11T06:07:22.985Z,1.82
2024-02-11T06:08:26.299Z,1.81
2024-02-11T06:09:28.964Z,1.78
2024-02-11T06:10:33.906Z,1.74
2024-02-11T06:11:36.755Z,1.69
2024-02-11T06:12:41.264Z,1.63
2024-02-11T06:13:43.625Z,1.67
2024-02-11T06:14:45.747Z,1.75
2024-02-11T06:15:48.350Z,1.66
2024-02-11T06:16:50.874Z,1.64
2024-02-11T06:17:54.846Z,1.64
2024-02-11T06:18:57.355Z,1.70
2024-02-11T06:20:00.471Z,1.76
2024-02-11T06:21:03.402Z,1.75
2024-02-11T06:22:06.409Z,1.67
2024-02-11T06:23:08.787Z,1.68
2024-02-11T06:24:11.003Z,1.71
2024-02-11T06:25:14.311Z,1.70
2024-02-11T06:26:18.580Z,1.76
2024-02-11T06:27:20.747Z,1.68
2024-02-11T06:28:22.814Z,1.69
2024-02-11T06:29:27.160Z,1.64
2024-02-11T06:30:29.880Z,1.65
2024-02-11T06:31:32.605Z,1.82
2024-02-11T06:32:39.292Z,1.93
2024-02-11T06:33:42.241Z,1.95
2024-02-11T06:34:47.557Z,1.96
2024-02-11T06:35:51.144Z,1.92
2024-02-11T06:36:54.488Z,1.91
2024-02-11T06:37:57.315Z,1.93
2024-02-11T06:39:01.309Z,1.93
2024-02-11T06:40:04.661Z,1.93
2024-02-11T06:41:08.341Z,2.04
2024-02-11T06:42:10.500Z,2.03
2024-02-11T06:43:13.468Z,2.03
2024-02-11T06:44:16.896Z,2.13
2024-02-11T06:45:20.845Z,2.13
2024-02-11T06:46:23.261Z,2.10
2024-02-11T06:47:26.373Z,2.00
2024-02-11T06:48:30.202Z,2.01
2024-02-11T06:49:34.393Z,2.02
2024-02-11T06:50:37.908Z,2.09
2024-02-11T06:51:41.328Z,2.13
2024-02-11T06:52:44.862Z,2.10
2024-02-11T06:53:48.100Z,2.06
2024-02-11T06:54:50.251Z,2.16
2024-02-11T06:55:54.290Z,2.20
2024-02-11T06:56:58.643Z,2.26
2024-02-11T06:58:00.815Z,2.36
2024-02-11T06:59:04.895Z,2.36
2024-02-11T07:00:12.950Z,2.39
2024-02-11T07:01:17.019Z,2.32
2024-02-11T07:02:19.418Z,2.20
2024-02-11T07:03:23.833Z,2.23
2024-02-11T07:04:28.038Z,2.31
2024-02-11T07:05:32.621Z,2.29
2024-02-11T07:06:37.407Z,2.33
2024-02-11T07:07:42.394Z,2.32
2024-02-11T07:08:44.812Z,2.27
2024-02-11T07:09:46.978Z,2.08
2024-02-11T07:10:49.658Z,1.96
2024-02-11T07:11:52.316Z,1.97
2024-02-11T07:12:55.806Z,1.94
2024-02-11T07:14:00.029Z,1.90
2024-02-11T07:15:06.660Z,1.85
2024-02-11T07:16:09.574Z,1.99
2024-02-11T07:17:14.423Z,2.03
2024-02-11T07:18:17.208Z,2.12
2024-02-11T07:19:20.038Z,2.17
2024-02-11T07:20:24.086Z,2.18
2024-02-11T07:21:30.152Z,2.16
2024-02-11T07:22:33.805Z,2.21
2024-02-11T07:23:36.414Z,2.25
2024-02-11T07:24:41.112Z,2.27
2024-02-11T07:25:44.150Z,2.26
2024-02-11T07:26:50.126Z,2.31
2024-02-11T07:27:52.653Z,2.34
2024-02-11T07:28:55.038Z,2.39
2024-02-11T07:29:58.357Z,2.39
2024-02-11T07:31:01.204Z,2.51
2024-02-11T07:32:04.830Z,2.50
2024-02-11T07:33:08.404Z,2.58
2024-02-11T07:34:17.939Z,2.58
2024-02-11T07:35:20.598Z,2.55
2024-02-11T07:36:23.352Z,2.46
2024-02-11T07:37:25.646Z,2.50
2024-02-11T07:38:31.921Z,2.57
2024-02-11T07:39:34.231Z,2.67
2024-02-11T07:40:37.607Z,2.79
2024-02-11T07:41:41.789Z,2.84
2024-02-11T07:42:46.430Z,2.88
2024-02-11T07:43:54.046Z,2.84
2024-02-11T07:44:57.379Z,2.83
2024-02-11T07:46:00.916Z,2.80
2024-02-11T07:47:05.375Z,2.86
2024-02-11T07:48:10.680Z,2.96
2024-02-11T07:49:14.020Z,2.91
2024-02-11T07:50:18.174Z,2.80
2024-02-11T07:51:22.170Z,2.80
2024-02-11T07:52:24.894Z,2.82
2024-02-11T07:53:27.782Z,2.86
2024-02-11T07:54:31.796Z,2.99
2024-02-11T07:55:35.424Z,2.93
2024-02-11T07:56:39.000Z,2.80
2024-02-11T07:57:42.192Z,2.84
2024-02-11T07:58:45.111Z,2.82
2024-02-11T07:59:47.581Z,2.96
2024-02-11T08:00:51.343Z,2.99
2024-02-11T08:01:55.795Z,2.84
2024-02-11T08:02:59.089Z,2.88
2024-02-11T08:04:01.563Z,2.80
2024-02-11T08:05:04.785Z,2.73
2024-02-11T08:06:10.189Z,2.64
2024-02-11T08:07:12.319Z,2.56
2024-02-11T08:08:15.358Z,2.64
2024-02-11T08:09:17.847Z,2.63
2024-02-11T08:10:22.330Z,2.57
2024-02-11T08:11:26.744Z,2.59
2024-02-11T08:12:29.128Z,2.55
2024-02-11T08:13:34.369Z,2.63
2024-02-11T08:14:38.692Z,2.70
2024-02-11T08:15:42.658Z,2.71
2024-02-11T08:16:47.698Z,2.66
2024-02-11T08:17:50.039Z,2.69
2024-02-11T08:18:55.557Z,2.69
2024-02-11T08:19:57.748Z,2.68
2024-02-11T08:21:00.790Z,2.71
2024-02-11T08:22:06.213Z,2.66
2024-02-11T08:23:10.451Z,2.73
2024-02-11T08:24:15.789Z,2.76
2024-02-11T08:25:21.891Z,2.79
2024-02-11T08:26:25.384Z,2.77
2024-02-11T08:27:28.242Z,2.61
2024-02-11T08:28:31.231Z,2.62
2024-02-11T08:29:33.470Z,2.77
2024-02-11T08:30:36.770Z,2.84
2024-02-11T08:31:39.034Z,2.74
2024-02-11T08:32:43.429Z,2.74
2024-02-11T08:33:48.169Z,2.67
2024-02-11T08:34:50.973Z,2.59
2024-02-11T08:35:53.072Z,2.51
2024-02-11T08:36:55.787Z,2.42
2024-02-11T08:38:00.009Z,2.42
2024-02-11T08:39:03.313Z,2.49
2024-02-11T08:40:08.085Z,2.57
2024-02-11T08:41:10.488Z,2.64
2024-02-11T08:42:15.469Z,2.63
2024-02-11T08:43:19.668Z,2.74
2024-02-11T08:44:22.087Z,2.77
2024-02-11T08:45:24.786Z,2.73
2024-02-11T08:46:27.643Z,2.73
2024-02-11T08:47:29.928Z,2.65
2024-02-11T08:48:33.089Z,2.59
2024-02-11T08:49:36.525Z,2.57
2024-02-11T08:50:39.348Z,2.47
2024-02-11T08:51:41.459Z,2.48
2024-02-11T08:52:45.699Z,2.44
2024-02-11T08:53:47.938Z,2.43
2024-02-11T08:54:51.910Z,2.47
2024-02-11T08:55:54.607Z,2.50
2024-02-11T08:56:57.169Z,2.54
2024-02-11T08:58:00.597Z,2.57
2024-02-11T08:59:04.393Z,2.61
2024-02-11T09:00:13.413Z,2.58
2024-02-11T09:01:16.360Z,2.53
2024-02-11T09:02:18.756Z,2.53
2024-02-11T09:03:21.630Z,2.39
2024-02-11T09:04:25.178Z,2.26
2024-02-11T09:05:28.573Z,2.24
2024-02-11T09:06:31.570Z,2.24
2024-02-11T09:07:35.018Z,2.26
2024-02-11T09:08:38.629Z,2.20
2024-02-11T09:09:41.856Z,2.20
2024-02-11T09:10:45.711Z,2.16
2024-02-11T09:11:49.049Z,2.23
2024-02-11T09:12:51.416Z,2.30
2024-02-11T09:13:54.049Z,2.31
2024-02-11T09:14:58.101Z,2.34
2024-02-11T09:16:01.012Z,2.36
2024-02-11T09:17:03.318Z,2.38
2024-02-11T09:18:10.890Z,2.29
2024-02-11T09:19:15.499Z,2.39
2024-02-11T09:20:21.110Z,2.44
2024-02-11T09:21:24.314Z,2.52
2024-02-11T09:22:28.005Z,2.58
2024-02-11T09:23:31.139Z,2.60
2024-02-11T09:24:36.840Z,2.48
2024-02-11T09:25:42.816Z,2.51
2024-02-11T09:26:46.456Z,2.52
2024-02-11T09:27:48.686Z,2.57
2024-02-11T09:28:51.991Z,2.69
2024-02-11T09:29:54.243Z,2.80
2024-02-11T09:30:57.082Z,2.86
2024-02-11T09:31:59.968Z,2.84
2024-02-11T09:33:02.188Z,2.83
2024-02-11T09:34:06.425Z,2.79
2024-02-11T09:35:10.292Z,2.89
2024-02-11T09:36:13.651Z,2.94
2024-02-11T09:37:15.955Z,3.10
2024-02-11T09:38:21.514Z,3.16
2024-02-11T09:39:25.468Z,3.04
2024-02-11T09:40:29.225Z,2.82
2024-02-11T09:41:33.216Z,2.82
2024-02-11T09:42:35.876Z,2.74
2024-02-11T09:43:40.687Z,2.81
2024-02-11T09:44:46.907Z,2.82
2024-02-11T09:45:53.967Z,2.82
2024-02-11T09:47:00.804Z,2.82
2024-02-11T09:48:05.848Z,2.79
2024-02-11T09:49:10.556Z,2.81
2024-02-11T09:50:16.203Z,2.77
2024-02-11T09:51:21.101Z,2.73
2024-02-11T09:52:24.610Z,2.79
2024-02-11T09:53:28.668Z,2.80
2024-02-11T09:54:32.441Z,2.84
2024-02-11T09:55:40.401Z,2.82
2024-02-11T09:56:43.856Z,2.83
2024-02-11T09:57:46.348Z,2.80
2024-02-11T09:58:48.752Z,2.97
2024-02-11T09:59:51.816Z,3.09
2024-02-11T10:00:55.965Z,3.11
2024-02-11T10:01:59.958Z,3.18
2024-02-11T10:03:03.936Z,2.98
2024-02-11T10:04:09.519Z,2.93
2024-02-11T10:05:14.016Z,2.94
2024-02-11T10:06:21.071Z,3.08
2024-02-11T10:07:24.742Z,2.93
2024-02-11T10:08:27.232Z,2.98
2024-02-11T10:09:29.988Z,3.02
2024-02-11T10:10:32.435Z,2.94
2024-02-11T10:11:35.146Z,2.98
2024-02-11T10:12:40.348Z,2.97
2024-02-11T10:13:45.141Z,2.97
2024-02-11T10:14:55.729Z,3.03
2024-02-11T10:15:57.987Z,2.89
2024-02-11T10:17:00.513Z,2.87
2024-02-11T10:18:09.896Z,3.02
2024-02-11T10:19:14.941Z,2.85
2024-02-11T10:20:18.937Z,2.94
2024-02-11T10:21:22.081Z,2.99
2024-02-11T10:22:28.721Z,3.09
2024-02-11T10:23:29.965Z,3.24
2024-02-11T10:24:33.536Z,3.21
2024-02-11T10:25:36.607Z,3.18
2024-02-11T10:26:39.939Z,3.07
2024-02-11T10:27:43.614Z,3.12
2024-02-11T10:28:47.541Z,3.02
2024-02-11T10:29:52.200Z,3.04
2024-02-11T10:30:57.672Z,2.97
2024-02-11T10:32:07.129Z,2.91
2024-02-11T10:33:12.551Z,2.91
2024-02-11T10:34:15.235Z,2.99
2024-02-11T10:35:18.294Z,2.95
2024-02-11T10:36:25.098Z,3.00
2024-02-11T10:37:27.276Z,3.02
2024-02-11T10:38:32.840Z,3.06
2024-02-11T10:39:38.395Z,3.20
2024-02-11T10:40:44.334Z,3.03
2024-02-11T10:41:47.422Z,3.01
2024-02-11T10:42:51.861Z,3.07
2024-02-11T10:43:55.290Z,3.12
2024-02-11T10:44:58.987Z,2.97
2024-02-11T10:46:05.284Z,3.03
2024-02-11T10:47:08.845Z,3.08
2024-02-11T10:48:13.760Z,2.96
2024-02-11T10:49:16.809Z,2.96
2024-02-11T10:50:20.128Z,3.10
2024-02-11T10:51:25.094Z,3.18
2024-02-11T10:52:31.297Z,3.34
2024-02-11T10:53:37.332Z,3.26
2024-02-11T10:54:46.241Z,3.36
2024-02-11T10:55:49.744Z,3.41
2024-02-11T10:56:56.388Z,3.61
2024-02-11T10:58:01.008Z,3.67
2024-02-11T10:59:14.235Z,3.56
2024-02-11T11:00:22.756Z,3.58
2024-02-11T11:01:27.587Z,3.54
2024-02-11T11:02:36.118Z,3.65
2024-02-11T11:03:40.730Z,3.60
2024-02-11T11:04:46.972Z,3.72
2024-02-11T11:05:50.804Z,3.70
2024-02-11T11:06:54.653Z,3.73
2024-02-11T11:08:01.426Z,3.67
2024-02-11T11:09:06.563Z,3.70
2024-02-11T11:10:12.387Z,3.73
2024-02-11T11:11:27.235Z,3.80
2024-02-11T11:12:29.889Z,3.79
2024-02-11T11:13:32.845Z,3.81
2024-02-11T11:14:43.870Z,3.80
2024-02-11T11:15:49.785Z,3.90
2024-02-11T11:16:53.566Z,3.86
2024-02-11T11:17:56.159Z,3.94
2024-02-11T11:19:05.195Z,4.04
2024-02-11T11:20:14.676Z,3.98
2024-02-11T11:21:17.493Z,3.91
2024-02-11T11:22:24.616Z,3.86
2024-02-11T11:23:31.384Z,3.95
2024-02-11T11:24:37.392Z,4.04
2024-02-11T11:25:41.014Z,4.11
2024-02-11T11:26:54.539Z,4.14
2024-02-11T11:28:13.001Z,4.19
2024-02-11T11:29:15.325Z,4.19
2024-02-11T11:30:21.322Z,4.13
2024-02-11T11:31:26.959Z,4.18
2024-02-11T11:32:30.235Z,4.19
2024-02-11T11:33:34.958Z,3.93
2024-02-11T11:34:38.749Z,3.91
2024-02-11T11:35:42.019Z,3.98
2024-02-11T11:36:45.650Z,4.14
2024-02-11T11:37:48.874Z,4.18
2024-02-11T11:38:52.395Z,3.97
2024-02-11T11:39:58.276Z,3.93
2024-02-11T11:41:04.219Z,3.91
2024-02-11T11:42:07.297Z,3.91
2024-02-11T11:43:17.473Z,3.93
2024-02-11T11:44:23.391Z,3.98
2024-02-11T11:45:26.104Z,3.98
2024-02-11T11:46:29.208Z,3.95
2024-02-11T11:47:31.601Z,3.80
2024-02-11T11:48:35.949Z,3.82
2024-02-11T11:49:39.443Z,3.96
2024-02-11T11:50:42.761Z,3.95
2024-02-11T11:51:45.962Z,3.96
2024-02-11T11:52:52.136Z,3.94
2024-02-11T11:53:54.409Z,4.04
2024-02-11T11:54:57.093Z,3.92
2024-02-11T11:56:02.557Z,3.88
2024-02-11T11:57:11.064Z,3.82
2024-02-11T11:58:22.130Z,3.89
2024-02-11T11:59:26.961Z,3.93
2024-02-11T12:00:36.519Z,3.85
2024-02-11T12:03:05.409Z,3.77
2024-02-11T12:04:10.519Z,3.71
2024-02-11T12:05:17.639Z,3.71
2024-02-11T12:06:23.313Z,3.59
2024-02-11T12:07:26.642Z,3.51
2024-02-11T12:08:29.796Z,3.65
2024-02-11T12:09:36.733Z,3.73
2024-02-11T12:10:41.122Z,3.72
2024-02-11T12:11:48.673Z,3.67
2024-02-11T12:12:50.969Z,3.70
2024-02-11T12:13:53.481Z,3.78
2024-02-11T12:16:15.150Z,3.94
2024-02-11T12:17:17.468Z,3.76
2024-02-11T12:18:26.940Z,3.67
2024-02-11T12:19:41.816Z,3.73
2024-02-11T12:20:44.257Z,3.68
2024-02-11T12:21:47.900Z,3.81
2024-02-11T12:22:51.948Z,3.80
2024-02-11T12:24:00.909Z,3.77
2024-02-11T12:25:03.418Z,3.77
2024-02-11T12:26:07.116Z,3.64
2024-02-11T12:27:19.189Z,3.70
2024-02-11T12:29:43.766Z,3.67
2024-02-11T12:30:52.478Z,3.42
2024-02-11T12:31:58.512Z,3.28
2024-02-11T12:33:04.367Z,3.31
2024-02-11T12:34:08.692Z,3.17
2024-02-11T12:36:39.398Z,3.46
2024-02-11T12:37:42.797Z,3.45
2024-02-11T12:38:46.382Z,3.38
2024-02-11T12:39:49.549Z,3.38
2024-02-11T12:40:52.859Z,3.38
2024-02-11T12:41:56.309Z,3.38
2024-02-11T12:42:59.827Z,3.47
2024-02-11T12:44:05.904Z,3.43
2024-02-11T12:45:13.935Z,3.38
2024-02-11T12:46:16.468Z,3.29
2024-02-11T12:47:20.221Z,3.30
2024-02-11T12:48:24.598Z,3.40
2024-02-11T12:49:27.793Z,3.44
2024-02-11T12:50:30.111Z,3.49
2024-02-11T12:51:33.283Z,3.42
2024-02-11T12:52:36.702Z,3.49
2024-02-11T12:53:39.263Z,3.52
2024-02-11T12:54:41.698Z,3.51
2024-02-11T12:55:43.971Z,3.47
2024-02-11T12:56:48.383Z,3.47
2024-02-11T12:57:51.003Z,3.43
2024-02-11T12:58:53.296Z,3.46
2024-02-11T12:59:59.945Z,3.50
2024-02-11T13:01:03.733Z,3.46
2024-02-11T13:02:06.369Z,3.48
2024-02-11T13:03:09.247Z,3.52
2024-02-11T13:04:11.520Z,3.49
2024-02-11T13:05:15.852Z,3.47
2024-02-11T13:06:19.417Z,3.49
2024-02-11T13:07:23.105Z,3.59
2024-02-11T13:08:28.204Z,3.49
2024-02-11T13:09:31.699Z,3.59
2024-02-11T13:10:34.892Z,3.46
2024-02-11T13:11:39.297Z,3.37
2024-02-11T13:12:44.818Z,3.47
2024-02-11T13:13:48.954Z,3.47
2024-02-11T13:14:51.296Z,3.44
2024-02-11T13:15:53.579Z,3.46
2024-02-11T13:16:57.141Z,3.57
2024-02-11T13:18:03.189Z,3.53
2024-02-11T13:19:07.764Z,3.48
2024-02-11T13:20:12.161Z,3.48
2024-02-11T13:21:15.118Z,3.41
2024-02-11T13:22:17.244Z,3.44
2024-02-11T13:23:20.312Z,3.27
2024-02-11T13:24:23.659Z,3.20
2024-02-11T13:25:26.864Z,3.24
2024-02-11T13:26:29.294Z,3.19
2024-02-11T13:27:31.515Z,3.23
2024-02-11T13:28:34.508Z,3.21
2024-02-11T13:29:38.023Z,3.31
2024-02-11T13:30:44.490Z,3.18
2024-02-11T13:31:47.140Z,3.18
2024-02-11T13:32:53.026Z,3.25
2024-02-11T13:33:57.407Z,3.30
2024-02-11T13:35:00.522Z,3.26
2024-02-11T13:36:05.537Z,3.40
2024-02-11T13:37:08.018Z,3.40
2024-02-11T13:38:10.618Z,3.47
2024-02-11T13:39:14.539Z,3.51
2024-02-11T13:40:18.206Z,3.54
2024-02-11T13:41:20.643Z,3.46
2024-02-11T13:42:24.619Z,3.50
2024-02-11T13:43:27.979Z,3.49
2024-02-11T13:44:30.500Z,3.55
2024-02-11T13:45:32.802Z,3.41
2024-02-11T13:46:36.114Z,3.42
2024-02-11T13:47:39.620Z,3.33
2024-02-11T13:48:43.320Z,3.45
2024-02-11T13:49:47.759Z,3.44
2024-02-11T13:50:50.759Z,3.42
2024-02-11T13:51:53.709Z,3.60
2024-02-11T13:52:58.482Z,3.61
2024-02-11T13:54:01.880Z,3.59
2024-02-11T13:55:06.649Z,3.52
2024-02-11T13:56:11.556Z,3.43
2024-02-11T13:57:13.840Z,3.45
2024-02-11T13:58:15.999Z,3.51
2024-02-11T13:59:18.215Z,3.45
2024-02-11T14:00:24.126Z,3.34
2024-02-11T14:01:26.750Z,3.41
2024-02-11T14:02:28.887Z,3.39
2024-02-11T14:03:31.238Z,3.33
2024-02-11T14:04:35.569Z,3.34
2024-02-11T14:05:40.120Z,3.46
2024-02-11T14:06:47.856Z,3.45
2024-02-11T14:07:50.955Z,3.43
2024-02-11T14:08:57.372Z,3.35
2024-02-11T14:10:01.091Z,3.31
2024-02-11T14:11:07.378Z,3.25
2024-02-11T14:12:10.297Z,3.33
2024-02-11T14:13:13.783Z,3.38
2024-02-11T14:14:17.818Z,3.32
2024-02-11T14:15:21.032Z,3.29
2024-02-11T14:16:23.417Z,3.24